createdAt,value
2023-03-23T15:57:53.774Z,7.20
2023-03-23T16:00:23.001Z,7.22
2023-03-23T16:02:56.013Z,5.18
2023-03-23T16:05:23.019Z,7.95
2023-03-23T16:07:50.868Z,6.93
2023-03-23T16:10:19.607Z,5.68
2023-03-23T16:12:46.847Z,4.18
2023-03-23T16:15:14.454Z,4.45
2023-03-23T16:17:42.114Z,7.57
2023-03-23T16:20:17.457Z,6.05
2023-03-23T16:22:44.161Z,5.95
2023-03-23T16:25:11.733Z,7.10
2023-03-23T16:27:40.478Z,5.35
2023-03-23T16:30:15.922Z,11.18
2023-03-23T16:32:43.502Z,10.43
2023-03-23T16:35:11.211Z,8.43
2023-03-23T16:37:37.940Z,7.78
2023-03-23T16:40:07.329Z,8.90
2023-03-23T16:42:34.074Z,12.32
2023-03-23T16:45:00.923Z,6.88
2023-03-23T16:47:27.626Z,11.55
2023-03-23T16:49:54.330Z,6.60
2023-03-23T16:52:21.273Z,16.58
2023-03-23T16:54:47.934Z,18.88
2023-03-23T16:57:14.654Z,18.42
2023-03-23T16:59:41.312Z,13.10
2023-03-23T17:02:11.109Z,12.30
2023-03-23T17:04:42.275Z,10.98
2023-03-23T17:07:08.977Z,11.35
2023-03-23T17:09:35.777Z,9.50
2023-03-23T17:12:02.471Z,11.23
2023-03-23T17:14:29.118Z,8.38
2023-03-23T17:16:56.748Z,11.68
2023-03-23T17:19:23.590Z,10.25
2023-03-23T17:21:51.450Z,11.48
2023-03-23T17:24:18.714Z,9.20
2023-03-23T17:26:45.461Z,10.75
2023-03-23T17:29:12.221Z,8.55
2023-03-23T17:31:39.127Z,9.85
2023-03-23T17:34:06.071Z,12.40
2023-03-23T17:36:33.004Z,8.82
2023-03-23T17:38:59.904Z,12.38
2023-03-23T17:41:26.608Z,16.92
2023-03-23T17:43:53.376Z,16.67
2023-03-23T17:46:20.331Z,16.70
2023-03-23T17:48:47.139Z,15.00
2023-03-23T17:51:14.409Z,11.75
2023-03-23T17:53:43.882Z,12.85
2023-03-23T17:56:10.943Z,8.82
2023-03-23T17:58:40.828Z,10.32
2023-03-23T18:01:07.926Z,15.52
2023-03-23T18:03:35.685Z,8.95
2023-03-23T18:06:05.720Z,9.85
2023-03-23T18:08:32.757Z,8.70
2023-03-23T18:10:59.413Z,6.68
2023-03-23T18:13:28.240Z,7.82
2023-03-23T18:16:06.874Z,10.73
2023-03-23T18:18:33.991Z,10.40
2023-03-23T18:21:05.579Z,9.48
2023-03-23T18:23:38.971Z,10.30
2023-03-23T18:26:12.467Z,10.80
2023-03-23T18:28:39.576Z,11.98
2023-03-23T18:31:13.100Z,10.38
2023-03-23T18:33:46.610Z,16.00
2023-03-23T18:36:15.886Z,9.68
2023-03-23T18:38:44.830Z,10.00
2023-03-23T18:41:12.861Z,9.27
2023-03-23T18:43:39.662Z,11.57
2023-03-23T18:46:07.278Z,11.95
2023-03-23T18:48:34.430Z,11.32
2023-03-23T18:51:01.449Z,13.27
2023-03-23T18:53:28.678Z,11.75
